sensor_id;sensor_type;location;lat;lon;timestamp;temperature;humidity
78289;DHT22;67539;48.752;12.922;2023-11-19T00:01:18;4.80;99.90
78289;DHT22;67539;48.752;12.922;2023-11-19T00:03:49;4.80;99.90
78289;DHT22;67539;48.752;12.922;2023-11-19T00:06:17;4.90;99.90
78289;DHT22;67539;48.752;12.922;2023-11-19T00:08:45;4.90;99.90
78289;DHT22;67539;48.752;12.922;2023-11-19T00:11:14;4.90;99.90
78289;DHT22;67539;48.752;12.922;2023-11-19T00:13:43;4.90;99.90
78289;DHT22;67539;48.752;12.922;2023-11-19T00:16:11;4.90;99.90
78289;DHT22;67539;48.752;12.922;2023-11-19T00:18:41;4.90;99.90
78289;DHT22;67539;48.752;12.922;2023-11-19T00:21:10;4.90;99.90
78289;DHT22;67539;48.752;12.922;2023-11-19T00:23:38;4.90;99.90
78289;DHT22;67539;48.752;12.922;2023-11-19T00:26:07;4.80;99.90
78289;DHT22;67539;48.752;12.922;2023-11-19T00:28:36;4.80;99.90
78289;DHT22;67539;48.752;12.922;2023-11-19T00:31:05;4.80;99.90
78289;DHT22;67539;48.752;12.922;2023-11-19T00:33:34;4.80;99.90
78289;DHT22;67539;48.752;12.922;2023-11-19T00:36:17;4.80;99.90
78289;DHT22;67539;48.752;12.922;2023-11-19T00:38:46;4.80;99.90
78289;DHT22;67539;48.752;12.922;2023-11-19T00:41:15;4.90;99.90
78289;DHT22;67539;48.752;12.922;2023-11-19T00:43:43;4.90;99.90
78289;DHT22;67539;48.752;12.922;2023-11-19T00:46:11;4.80;99.90
78289;DHT22;67539;48.752;12.922;2023-11-19T00:48:41;4.80;99.90
78289;DHT22;67539;48.752;12.922;2023-11-19T00:51:11;4.80;99.90
78289;DHT22;67539;48.752;12.922;2023-11-19T00:53:40;4.80;99.90
78289;DHT22;67539;48.752;12.922;2023-11-19T00:56:11;4.80;99.90
78289;DHT22;67539;48.752;12.922;2023-11-19T00:58:40;4.70;99.90
78289;DHT22;67539;48.752;12.922;2023-11-19T01:01:08;4.70;99.90
78289;DHT22;67539;48.752;12.922;2023-11-19T01:03:36;4.70;99.90
78289;DHT22;67539;48.752;12.922;2023-11-19T01:06:05;4.70;99.90
78289;DHT22;67539;48.752;12.922;2023-11-19T01:08:33;4.70;99.90
78289;DHT22;67539;48.752;12.922;2023-11-19T01:11:04;4.70;99.90
78289;DHT22;67539;48.752;12.922;2023-11-19T01:13:32;4.70;99.90
78289;DHT22;67539;48.752;12.922;2023-11-19T01:16:00;4.70;99.90
78289;DHT22;67539;48.752;12.922;2023-11-19T01:18:29;4.60;99.90
78289;DHT22;67539;48.752;12.922;2023-11-19T01:20:58;4.60;99.90
78289;DHT22;67539;48.752;12.922;2023-11-19T01:23:26;4.60;99.90
78289;DHT22;67539;48.752;12.922;2023-11-19T01:25:54;4.60;99.90
78289;DHT22;67539;48.752;12.922;2023-11-19T01:28:24;4.60;99.90
78289;DHT22;67539;48.752;12.922;2023-11-19T01:30:52;4.50;99.90
78289;DHT22;67539;48.752;12.922;2023-11-19T01:33:20;4.50;99.90
78289;DHT22;67539;48.752;12.922;2023-11-19T01:35:49;4.50;99.90
78289;DHT22;67539;48.752;12.922;2023-11-19T01:38:20;4.50;99.90
78289;DHT22;67539;48.752;12.922;2023-11-19T01:40:48;4.60;99.90
78289;DHT22;67539;48.752;12.922;2023-11-19T05:39:16;4.50;99.90
78289;DHT22;67539;48.752;12.922;2023-11-19T05:41:46;4.50;99.90
78289;DHT22;67539;48.752;12.922;2023-11-19T05:44:15;4.50;99.90
78289;DHT22;67539;48.752;12.922;2023-11-19T05:46:43;4.40;99.90
78289;DHT22;67539;48.752;12.922;2023-11-19T05:49:11;4.50;99.90
78289;DHT22;67539;48.752;12.922;2023-11-19T05:51:40;4.50;99.90
78289;DHT22;67539;48.752;12.922;2023-11-19T05:54:09;4.50;99.90
78289;DHT22;67539;48.752;12.922;2023-11-19T05:56:39;4.50;99.90
78289;DHT22;67539;48.752;12.922;2023-11-19T05:59:08;4.50;99.90
78289;DHT22;67539;48.752;12.922;2023-11-19T06:01:42;4.50;99.90
78289;DHT22;67539;48.752;12.922;2023-11-19T06:04:10;4.50;99.90
78289;DHT22;67539;48.752;12.922;2023-11-19T06:06:39;4.60;99.90
78289;DHT22;67539;48.752;12.922;2023-11-19T06:09:07;4.60;99.90
78289;DHT22;67539;48.752;12.922;2023-11-19T06:11:41;4.60;99.90
78289;DHT22;67539;48.752;12.922;2023-11-19T06:14:11;4.60;99.90
78289;DHT22;67539;48.752;12.922;2023-11-19T06:16:39;4.60;99.90
78289;DHT22;67539;48.752;12.922;2023-11-19T06:19:08;4.60;99.90
78289;DHT22;67539;48.752;12.922;2023-11-19T06:21:37;4.60;99.90
78289;DHT22;67539;48.752;12.922;2023-11-19T06:24:05;4.60;99.90
78289;DHT22;67539;48.752;12.922;2023-11-19T06:26:33;4.60;99.90
78289;DHT22;67539;48.752;12.922;2023-11-19T06:29:03;4.60;99.90
78289;DHT22;67539;48.752;12.922;2023-11-19T06:31:31;4.60;99.90
78289;DHT22;67539;48.752;12.922;2023-11-19T06:33:59;4.60;99.90
78289;DHT22;67539;48.752;12.922;2023-11-19T06:36:28;4.60;99.90
78289;DHT22;67539;48.752;12.922;2023-11-19T06:38:56;4.60;99.90
78289;DHT22;67539;48.752;12.922;2023-11-19T06:41:24;4.60;99.90
78289;DHT22;67539;48.752;12.922;2023-11-19T06:43:52;4.60;99.90
78289;DHT22;67539;48.752;12.922;2023-11-19T06:46:22;4.60;99.90
78289;DHT22;67539;48.752;12.922;2023-11-19T06:48:50;4.60;99.90
78289;DHT22;67539;48.752;12.922;2023-11-19T06:51:19;4.60;99.90
78289;DHT22;67539;48.752;12.922;2023-11-19T06:53:47;4.60;99.90
78289;DHT22;67539;48.752;12.922;2023-11-19T06:56:22;4.60;99.90
78289;DHT22;67539;48.752;12.922;2023-11-19T06:58:51;4.60;99.90
78289;DHT22;67539;48.752;12.922;2023-11-19T07:01:21;4.60;99.90
78289;DHT22;67539;48.752;12.922;2023-11-19T07:03:50;4.60;99.90
78289;DHT22;67539;48.752;12.922;2023-11-19T07:06:18;4.60;99.90
78289;DHT22;67539;48.752;12.922;2023-11-19T07:09:00;4.60;99.90
78289;DHT22;67539;48.752;12.922;2023-11-19T07:11:36;4.60;99.90
78289;DHT22;67539;48.752;12.922;2023-11-19T07:14:06;4.60;99.90
78289;DHT22;67539;48.752;12.922;2023-11-19T07:16:36;4.60;99.90
78289;DHT22;67539;48.752;12.922;2023-11-19T07:19:05;4.60;99.90
78289;DHT22;67539;48.752;12.922;2023-11-19T07:21:34;4.60;99.90
78289;DHT22;67539;48.752;12.922;2023-11-19T07:24:05;4.60;99.90
78289;DHT22;67539;48.752;12.922;2023-11-19T07:26:34;4.60;99.90
78289;DHT22;67539;48.752;12.922;2023-11-19T07:29:02;4.60;99.90
78289;DHT22;67539;48.752;12.922;2023-11-19T07:31:35;4.60;99.90
78289;DHT22;67539;48.752;12.922;2023-11-19T07:34:04;4.60;99.90
78289;DHT22;67539;48.752;12.922;2023-11-19T07:36:33;4.70;99.90
78289;DHT22;67539;48.752;12.922;2023-11-19T07:39:03;4.70;99.90
78289;DHT22;67539;48.752;12.922;2023-11-19T07:41:32;4.70;99.90
78289;DHT22;67539;48.752;12.922;2023-11-19T07:44:04;4.70;99.90
78289;DHT22;67539;48.752;12.922;2023-11-19T07:46:33;4.80;99.90
78289;DHT22;67539;48.752;12.922;2023-11-19T07:49:03;4.70;99.90
78289;DHT22;67539;48.752;12.922;2023-11-19T07:51:31;4.80;99.90
78289;DHT22;67539;48.752;12.922;2023-11-19T07:53:59;4.80;99.90
78289;DHT22;67539;48.752;12.922;2023-11-19T07:56:27;4.80;99.90
78289;DHT22;67539;48.752;12.922;2023-11-19T07:58:56;4.80;99.90
78289;DHT22;67539;48.752;12.922;2023-11-19T08:01:24;4.80;99.90
78289;DHT22;67539;48.752;12.922;2023-11-19T08:03:52;4.80;99.90
78289;DHT22;67539;48.752;12.922;2023-11-19T08:06:25;4.80;99.90
78289;DHT22;67539;48.752;12.922;2023-11-19T08:08:53;4.80;99.90
78289;DHT22;67539;48.752;12.922;2023-11-19T08:11:22;4.80;99.90
78289;DHT22;67539;48.752;12.922;2023-11-19T08:13:50;4.80;99.90
78289;DHT22;67539;48.752;12.922;2023-11-19T08:16:18;4.80;99.90
78289;DHT22;67539;48.752;12.922;2023-11-19T08:18:47;4.90;99.90
78289;DHT22;67539;48.752;12.922;2023-11-19T08:21:15;4.90;99.90
78289;DHT22;67539;48.752;12.922;2023-11-19T08:23:44;4.90;99.90
78289;DHT22;67539;48.752;12.922;2023-11-19T08:26:14;4.90;99.90
78289;DHT22;67539;48.752;12.922;2023-11-19T08:28:47;4.90;99.90
78289;DHT22;67539;48.752;12.922;2023-11-19T08:31:15;4.90;99.90
78289;DHT22;67539;48.752;12.922;2023-11-19T08:33:44;4.90;99.90
78289;DHT22;67539;48.752;12.922;2023-11-19T08:36:15;4.90;99.90
78289;DHT22;67539;48.752;12.922;2023-11-19T08:38:45;5.00;99.90
78289;DHT22;67539;48.752;12.922;2023-11-19T08:41:16;5.00;99.90
78289;DHT22;67539;48.752;12.922;2023-11-19T08:43:45;5.00;99.90
78289;DHT22;67539;48.752;12.922;2023-11-19T08:46:13;5.10;99.90
78289;DHT22;67539;48.752;12.922;2023-11-19T08:48:42;5.10;99.90
78289;DHT22;67539;48.752;12.922;2023-11-19T08:51:10;5.10;99.90
78289;DHT22;67539;48.752;12.922;2023-11-19T08:53:38;5.10;99.90
78289;DHT22;67539;48.752;12.922;2023-11-19T08:56:09;5.20;99.90
78289;DHT22;67539;48.752;12.922;2023-11-19T08:58:38;5.20;99.90
78289;DHT22;67539;48.752;12.922;2023-11-19T09:01:06;5.20;99.90
78289;DHT22;67539;48.752;12.922;2023-11-19T09:03:36;5.20;99.90
78289;DHT22;67539;48.752;12.922;2023-11-19T09:06:05;5.20;99.90
78289;DHT22;67539;48.752;12.922;2023-11-19T09:08:34;5.20;99.90
78289;DHT22;67539;48.752;12.922;2023-11-19T09:11:07;5.30;99.90
78289;DHT22;67539;48.752;12.922;2023-11-19T09:13:37;5.30;99.90
78289;DHT22;67539;48.752;12.922;2023-11-19T09:16:06;5.30;99.90
78289;DHT22;67539;48.752;12.922;2023-11-19T09:18:35;5.30;99.90
78289;DHT22;67539;48.752;12.922;2023-11-19T09:21:04;5.30;99.90
78289;DHT22;67539;48.752;12.922;2023-11-19T09:23:32;5.30;99.90
78289;DHT22;67539;48.752;12.922;2023-11-19T09:26:06;5.30;99.90
78289;DHT22;67539;48.752;12.922;2023-11-19T09:28:39;5.30;99.90
78289;DHT22;67539;48.752;12.922;2023-11-19T09:31:13;5.30;99.90
78289;DHT22;67539;48.752;12.922;2023-11-19T09:33:42;5.30;99.90
78289;DHT22;67539;48.752;12.922;2023-11-19T09:36:12;5.30;99.90
78289;DHT22;67539;48.752;12.922;2023-11-19T09:38:41;5.40;99.90
78289;DHT22;67539;48.752;12.922;2023-11-19T09:41:10;5.40;99.90
78289;DHT22;67539;48.752;12.922;2023-11-19T09:43:41;5.50;99.90
78289;DHT22;67539;48.752;12.922;2023-11-19T09:46:15;5.50;99.90
78289;DHT22;67539;48.752;12.922;2023-11-19T09:48:47;5.50;99.90
78289;DHT22;67539;48.752;12.922;2023-11-19T09:51:19;5.50;99.90
78289;DHT22;67539;48.752;12.922;2023-11-19T09:53:48;5.60;99.90
78289;DHT22;67539;48.752;12.922;2023-11-19T09:56:16;5.60;99.90
78289;DHT22;67539;48.752;12.922;2023-11-19T09:58:46;5.60;99.90
78289;DHT22;67539;48.752;12.922;2023-11-19T10:01:15;5.60;99.90
78289;DHT22;67539;48.752;12.922;2023-11-19T10:03:47;5.70;99.90
78289;DHT22;67539;48.752;12.922;2023-11-19T10:06:16;5.70;99.90
78289;DHT22;67539;48.752;12.922;2023-11-19T10:08:46;5.70;99.90
78289;DHT22;67539;48.752;12.922;2023-11-19T10:11:14;5.80;99.90
78289;DHT22;67539;48.752;12.922;2023-11-19T10:13:43;5.80;99.90
78289;DHT22;67539;48.752;12.922;2023-11-19T10:16:17;5.90;99.90
78289;DHT22;67539;48.752;12.922;2023-11-19T10:18:46;6.00;99.90
78289;DHT22;67539;48.752;12.922;2023-11-19T10:21:15;6.00;99.90
78289;DHT22;67539;48.752;12.922;2023-11-19T10:23:48;6.00;99.90
78289;DHT22;67539;48.752;12.922;2023-11-19T10:26:18;6.00;99.90
78289;DHT22;67539;48.752;12.922;2023-11-19T10:28:47;6.10;99.90
78289;DHT22;67539;48.752;12.922;2023-11-19T10:31:18;6.10;99.90
78289;DHT22;67539;48.752;12.922;2023-11-19T10:33:46;6.10;99.90
78289;DHT22;67539;48.752;12.922;2023-11-19T10:36:15;6.20;99.90
78289;DHT22;67539;48.752;12.922;2023-11-19T10:38:52;6.30;99.90
78289;DHT22;67539;48.752;12.922;2023-11-19T10:41:28;6.40;99.90
78289;DHT22;67539;48.752;12.922;2023-11-19T10:43:56;6.40;99.90
78289;DHT22;67539;48.752;12.922;2023-11-19T10:46:37;6.50;99.90
78289;DHT22;67539;48.752;12.922;2023-11-19T10:49:07;6.60;99.90
78289;DHT22;67539;48.752;12.922;2023-11-19T10:51:36;6.60;99.90
78289;DHT22;67539;48.752;12.922;2023-11-19T10:54:05;6.70;99.90
78289;DHT22;67539;48.752;12.922;2023-11-19T10:56:34;6.80;99.90
78289;DHT22;67539;48.752;12.922;2023-11-19T10:59:02;6.80;99.90
78289;DHT22;67539;48.752;12.922;2023-11-19T11:01:53;6.80;99.90
78289;DHT22;67539;48.752;12.922;2023-11-19T11:04:24;7.00;99.90
78289;DHT22;67539;48.752;12.922;2023-11-19T11:06:54;7.00;99.90
78289;DHT22;67539;48.752;12.922;2023-11-19T11:09:23;7.00;99.90
78289;DHT22;67539;48.752;12.922;2023-11-19T11:11:51;7.00;99.90
78289;DHT22;67539;48.752;12.922;2023-11-19T11:14:21;7.00;99.90
78289;DHT22;67539;48.752;12.922;2023-11-19T11:16:51;7.10;99.90
78289;DHT22;67539;48.752;12.922;2023-11-19T11:19:21;7.00;99.90
78289;DHT22;67539;48.752;12.922;2023-11-19T11:21:51;7.10;99.90
78289;DHT22;67539;48.752;12.922;2023-11-19T11:24:37;7.10;99.90
78289;DHT22;67539;48.752;12.922;2023-11-19T11:27:40;7.20;99.90
78289;DHT22;67539;48.752;12.922;2023-11-19T11:30:17;7.20;99.90
78289;DHT22;67539;48.752;12.922;2023-11-19T11:32:54;7.30;99.90
78289;DHT22;67539;48.752;12.922;2023-11-19T11:35:30;7.30;99.90
78289;DHT22;67539;48.752;12.922;2023-11-19T11:38:04;7.20;99.90
78289;DHT22;67539;48.752;12.922;2023-11-19T11:40:34;7.20;99.90
78289;DHT22;67539;48.752;12.922;2023-11-19T11:43:03;7.30;99.90
78289;DHT22;67539;48.752;12.922;2023-11-19T11:45:36;7.30;99.90
78289;DHT22;67539;48.752;12.922;2023-11-19T11:48:15;7.30;99.90
78289;DHT22;67539;48.752;12.922;2023-11-19T11:50:48;7.30;99.90
78289;DHT22;67539;48.752;12.922;2023-11-19T11:53:18;7.30;99.90
78289;DHT22;67539;48.752;12.922;2023-11-19T11:55:57;7.40;99.90
78289;DHT22;67539;48.752;12.922;2023-11-19T11:58:34;7.40;99.90
78289;DHT22;67539;48.752;12.922;2023-11-19T12:01:04;7.60;99.90
78289;DHT22;67539;48.752;12.922;2023-11-19T12:03:36;7.60;99.90
78289;DHT22;67539;48.752;12.922;2023-11-19T12:06:06;7.70;99.90
78289;DHT22;67539;48.752;12.922;2023-11-19T12:08:35;7.70;99.90
78289;DHT22;67539;48.752;12.922;2023-11-19T12:11:06;7.70;99.90
78289;DHT22;67539;48.752;12.922;2023-11-19T12:13:54;7.80;99.90
78289;DHT22;67539;48.752;12.922;2023-11-19T12:16:25;8.00;99.90
78289;DHT22;67539;48.752;12.922;2023-11-19T12:18:56;8.10;99.90
78289;DHT22;67539;48.752;12.922;2023-11-19T12:21:28;8.20;99.90
78289;DHT22;67539;48.752;12.922;2023-11-19T12:23:58;8.20;99.90
78289;DHT22;67539;48.752;12.922;2023-11-19T12:26:35;8.30;99.90
78289;DHT22;67539;48.752;12.922;2023-11-19T12:29:03;8.40;99.90
78289;DHT22;67539;48.752;12.922;2023-11-19T12:31:35;8.40;99.90
78289;DHT22;67539;48.752;12.922;2023-11-19T12:34:09;8.50;99.90
78289;DHT22;67539;48.752;12.922;2023-11-19T12:36:40;8.60;99.90
78289;DHT22;67539;48.752;12.922;2023-11-19T12:39:12;8.70;99.90
78289;DHT22;67539;48.752;12.922;2023-11-19T12:41:53;8.70;99.90
78289;DHT22;67539;48.752;12.922;2023-11-19T12:44:22;8.70;99.90
78289;DHT22;67539;48.752;12.922;2023-11-19T12:47:00;8.80;99.90
78289;DHT22;67539;48.752;12.922;2023-11-19T12:49:30;8.90;99.90
78289;DHT22;67539;48.752;12.922;2023-11-19T12:51:59;9.00;99.90
78289;DHT22;67539;48.752;12.922;2023-11-19T12:54:32;9.10;99.90
78289;DHT22;67539;48.752;12.922;2023-11-19T12:57:01;9.10;99.90
78289;DHT22;67539;48.752;12.922;2023-11-19T12:59:30;9.10;99.90
78289;DHT22;67539;48.752;12.922;2023-11-19T13:01:58;9.10;99.90
78289;DHT22;67539;48.752;12.922;2023-11-19T13:04:29;9.20;99.90
78289;DHT22;67539;48.752;12.922;2023-11-19T13:06:58;9.20;99.90
78289;DHT22;67539;48.752;12.922;2023-11-19T13:09:29;9.20;99.90
78289;DHT22;67539;48.752;12.922;2023-11-19T13:11:58;9.30;99.90
78289;DHT22;67539;48.752;12.922;2023-11-19T13:14:36;9.30;99.90
78289;DHT22;67539;48.752;12.922;2023-11-19T13:17:05;9.40;99.90
78289;DHT22;67539;48.752;12.922;2023-11-19T13:19:35;9.50;99.90
78289;DHT22;67539;48.752;12.922;2023-11-19T13:22:03;9.50;99.90
78289;DHT22;67539;48.752;12.922;2023-11-19T13:24:31;9.60;99.90
78289;DHT22;67539;48.752;12.922;2023-11-19T13:26:59;9.70;99.90
78289;DHT22;67539;48.752;12.922;2023-11-19T13:29:27;9.80;99.90
78289;DHT22;67539;48.752;12.922;2023-11-19T13:31:58;9.90;99.90
78289;DHT22;67539;48.752;12.922;2023-11-19T13:34:26;9.90;99.90
78289;DHT22;67539;48.752;12.922;2023-11-19T13:36:56;9.90;99.90
78289;DHT22;67539;48.752;12.922;2023-11-19T13:39:24;9.80;99.90
78289;DHT22;67539;48.752;12.922;2023-11-19T13:41:52;9.80;99.90
78289;DHT22;67539;48.752;12.922;2023-11-19T13:44:39;9.80;99.90
78289;DHT22;67539;48.752;12.922;2023-11-19T13:47:09;9.90;99.90
78289;DHT22;67539;48.752;12.922;2023-11-19T13:49:37;10.00;99.90
78289;DHT22;67539;48.752;12.922;2023-11-19T13:52:07;10.20;99.90
78289;DHT22;67539;48.752;12.922;2023-11-19T13:54:36;10.40;99.90
78289;DHT22;67539;48.752;12.922;2023-11-19T13:57:04;10.30;99.90
78289;DHT22;67539;48.752;12.922;2023-11-19T13:59:33;10.30;99.90
78289;DHT22;67539;48.752;12.922;2023-11-19T14:02:01;10.20;99.90
78289;DHT22;67539;48.752;12.922;2023-11-19T14:04:29;10.10;99.90
78289;DHT22;67539;48.752;12.922;2023-11-19T14:06:57;10.00;99.90
78289;DHT22;67539;48.752;12.922;2023-11-19T14:09:26;9.90;99.90
78289;DHT22;67539;48.752;12.922;2023-11-19T14:11:56;9.80;99.90
78289;DHT22;67539;48.752;12.922;2023-11-19T14:14:24;9.70;99.90
78289;DHT22;67539;48.752;12.922;2023-11-19T14:16:52;9.60;99.90
78289;DHT22;67539;48.752;12.922;2023-11-19T14:19:20;9.60;99.90
78289;DHT22;67539;48.752;12.922;2023-11-19T14:21:48;9.50;99.90
78289;DHT22;67539;48.752;12.922;2023-11-19T14:24:16;9.40;99.90
78289;DHT22;67539;48.752;12.922;2023-11-19T14:26:47;9.50;99.90
78289;DHT22;67539;48.752;12.922;2023-11-19T14:29:16;9.50;99.90
78289;DHT22;67539;48.752;12.922;2023-11-19T14:31:45;9.50;99.90
78289;DHT22;67539;48.752;12.922;2023-11-19T14:34:13;9.60;99.90
78289;DHT22;67539;48.752;12.922;2023-11-19T14:36:41;9.60;99.90
78289;DHT22;67539;48.752;12.922;2023-11-19T14:39:09;9.70;99.90
78289;DHT22;67539;48.752;12.922;2023-11-19T14:41:37;9.80;99.90
78289;DHT22;67539;48.752;12.922;2023-11-19T14:44:07;9.90;99.90
78289;DHT22;67539;48.752;12.922;2023-11-19T14:46:36;9.90;99.90
78289;DHT22;67539;48.752;12.922;2023-11-19T14:49:04;10.00;99.90
78289;DHT22;67539;48.752;12.922;2023-11-19T14:51:35;9.90;99.90
78289;DHT22;67539;48.752;12.922;2023-11-19T14:54:04;9.90;99.90
78289;DHT22;67539;48.752;12.922;2023-11-19T14:56:33;9.80;99.90
78289;DHT22;67539;48.752;12.922;2023-11-19T14:59:01;9.80;99.90
78289;DHT22;67539;48.752;12.922;2023-11-19T15:01:30;9.70;99.90
78289;DHT22;67539;48.752;12.922;2023-11-19T15:03:59;9.60;99.90
78289;DHT22;67539;48.752;12.922;2023-11-19T15:06:31;9.60;99.90
78289;DHT22;67539;48.752;12.922;2023-11-19T15:09:01;9.50;99.90
78289;DHT22;67539;48.752;12.922;2023-11-19T15:11:29;9.40;99.90
78289;DHT22;67539;48.752;12.922;2023-11-19T15:13:57;9.30;99.90
78289;DHT22;67539;48.752;12.922;2023-11-19T15:16:26;9.20;99.90
78289;DHT22;67539;48.752;12.922;2023-11-19T15:18:59;9.10;99.90
78289;DHT22;67539;48.752;12.922;2023-11-19T15:21:30;9.10;99.90
78289;DHT22;67539;48.752;12.922;2023-11-19T15:23:59;8.90;99.90
78289;DHT22;67539;48.752;12.922;2023-11-19T15:26:27;8.90;99.90
78289;DHT22;67539;48.752;12.922;2023-11-19T15:28:55;8.80;99.90
78289;DHT22;67539;48.752;12.922;2023-11-19T15:31:25;8.80;99.90
78289;DHT22;67539;48.752;12.922;2023-11-19T15:33:53;8.70;99.90
78289;DHT22;67539;48.752;12.922;2023-11-19T15:36:23;8.70;99.90
78289;DHT22;67539;48.752;12.922;2023-11-19T15:38:51;8.60;99.90
78289;DHT22;67539;48.752;12.922;2023-11-19T15:41:20;8.60;99.90
78289;DHT22;67539;48.752;12.922;2023-11-19T15:43:48;8.50;99.90
78289;DHT22;67539;48.752;12.922;2023-11-19T15:46:16;8.50;99.90
78289;DHT22;67539;48.752;12.922;2023-11-19T15:48:44;8.50;99.90
78289;DHT22;67539;48.752;12.922;2023-11-19T15:51:13;8.40;99.90
78289;DHT22;67539;48.752;12.922;2023-11-19T15:53:42;8.40;99.90
78289;DHT22;67539;48.752;12.922;2023-11-19T15:56:11;8.40;99.90
78289;DHT22;67539;48.752;12.922;2023-11-19T15:58:39;8.40;99.90
78289;DHT22;67539;48.752;12.922;2023-11-19T16:01:08;8.30;99.90
78289;DHT22;67539;48.752;12.922;2023-11-19T16:03:36;8.20;99.90
78289;DHT22;67539;48.752;12.922;2023-11-19T16:06:08;8.20;99.90
78289;DHT22;67539;48.752;12.922;2023-11-19T16:08:37;8.20;99.90
78289;DHT22;67539;48.752;12.922;2023-11-19T16:11:09;8.20;99.90
78289;DHT22;67539;48.752;12.922;2023-11-19T16:13:37;8.20;99.90
78289;DHT22;67539;48.752;12.922;2023-11-19T16:16:05;8.20;99.90
78289;DHT22;67539;48.752;12.922;2023-11-19T16:18:37;8.10;99.90
78289;DHT22;67539;48.752;12.922;2023-11-19T16:21:05;8.10;99.90
78289;DHT22;67539;48.752;12.922;2023-11-19T16:23:35;8.10;99.90
78289;DHT22;67539;48.752;12.922;2023-11-19T16:26:03;8.10;99.90
78289;DHT22;67539;48.752;12.922;2023-11-19T16:28:33;8.10;99.90
78289;DHT22;67539;48.752;12.922;2023-11-19T16:31:02;8.10;99.90
78289;DHT22;67539;48.752;12.922;2023-11-19T16:33:30;8.10;99.90
78289;DHT22;67539;48.752;12.922;2023-11-19T16:36:01;8.10;99.90
78289;DHT22;67539;48.752;12.922;2023-11-19T16:38:30;8.00;99.90
78289;DHT22;67539;48.752;12.922;2023-11-19T16:40:59;8.00;99.90
78289;DHT22;67539;48.752;12.922;2023-11-19T16:43:27;8.00;99.90
78289;DHT22;67539;48.752;12.922;2023-11-19T16:45:57;8.00;99.90
78289;DHT22;67539;48.752;12.922;2023-11-19T16:48:26;8.00;99.90
78289;DHT22;67539;48.752;12.922;2023-11-19T16:50:55;7.90;99.90
78289;DHT22;67539;48.752;12.922;2023-11-19T16:53:26;7.80;99.90
78289;DHT22;67539;48.752;12.922;2023-11-19T16:55:54;7.80;99.90
78289;DHT22;67539;48.752;12.922;2023-11-19T16:58:22;7.80;99.90
78289;DHT22;67539;48.752;12.922;2023-11-19T17:00:50;7.80;99.90
78289;DHT22;67539;48.752;12.922;2023-11-19T17:03:20;7.80;99.90
78289;DHT22;67539;48.752;12.922;2023-11-19T17:05:49;7.80;99.90
78289;DHT22;67539;48.752;12.922;2023-11-19T17:08:17;7.80;99.90
78289;DHT22;67539;48.752;12.922;2023-11-19T17:10:45;7.70;99.90
78289;DHT22;67539;48.752;12.922;2023-11-19T17:13:14;7.70;99.90
78289;DHT22;67539;48.752;12.922;2023-11-19T17:15:42;7.70;99.90
78289;DHT22;67539;48.752;12.922;2023-11-19T17:18:10;7.60;99.90
78289;DHT22;67539;48.752;12.922;2023-11-19T17:20:40;7.60;99.90
78289;DHT22;67539;48.752;12.922;2023-11-19T17:23:08;7.50;99.90
78289;DHT22;67539;48.752;12.922;2023-11-19T17:25:36;7.50;99.90
78289;DHT22;67539;48.752;12.922;2023-11-19T17:28:05;7.40;99.90
78289;DHT22;67539;48.752;12.922;2023-11-19T17:30:34;7.40;99.90
78289;DHT22;67539;48.752;12.922;2023-11-19T17:33:03;7.40;99.90
78289;DHT22;67539;48.752;12.922;2023-11-19T17:35:32;7.40;99.90
78289;DHT22;67539;48.752;12.922;2023-11-19T17:38:02;7.40;99.90
78289;DHT22;67539;48.752;12.922;2023-11-19T17:40:31;7.30;99.90
78289;DHT22;67539;48.752;12.922;2023-11-19T17:42:59;7.30;99.90
78289;DHT22;67539;48.752;12.922;2023-11-19T17:45:27;7.30;99.90
78289;DHT22;67539;48.752;12.922;2023-11-19T17:47:56;7.30;99.90
78289;DHT22;67539;48.752;12.922;2023-11-19T17:50:24;7.20;99.90
78289;DHT22;67539;48.752;12.922;2023-11-19T17:52:53;7.20;99.90
78289;DHT22;67539;48.752;12.922;2023-11-19T17:55:22;7.20;99.90
78289;DHT22;67539;48.752;12.922;2023-11-19T17:57:50;7.10;99.90
78289;DHT22;67539;48.752;12.922;2023-11-19T18:00:19;7.00;99.90
78289;DHT22;67539;48.752;12.922;2023-11-19T18:02:48;7.00;99.90
78289;DHT22;67539;48.752;12.922;2023-11-19T18:05:19;7.00;99.90
78289;DHT22;67539;48.752;12.922;2023-11-19T18:07:48;6.90;99.90
78289;DHT22;67539;48.752;12.922;2023-11-19T18:10:16;6.90;99.90
78289;DHT22;67539;48.752;12.922;2023-11-19T18:12:46;6.80;99.90
78289;DHT22;67539;48.752;12.922;2023-11-19T18:15:14;6.80;99.90
78289;DHT22;67539;48.752;12.922;2023-11-19T18:17:42;6.70;99.90
78289;DHT22;67539;48.752;12.922;2023-11-19T18:20:12;6.70;99.90
78289;DHT22;67539;48.752;12.922;2023-11-19T18:22:43;6.60;99.90
78289;DHT22;67539;48.752;12.922;2023-11-19T18:25:13;6.60;99.90
78289;DHT22;67539;48.752;12.922;2023-11-19T18:27:46;6.60;99.90
78289;DHT22;67539;48.752;12.922;2023-11-19T18:30:14;6.60;99.90
78289;DHT22;67539;48.752;12.922;2023-11-19T18:32:43;6.50;99.90
78289;DHT22;67539;48.752;12.922;2023-11-19T18:35:12;6.50;99.90
78289;DHT22;67539;48.752;12.922;2023-11-19T18:37:44;6.50;99.90
78289;DHT22;67539;48.752;12.922;2023-11-19T18:40:13;6.50;99.90
78289;DHT22;67539;48.752;12.922;2023-11-19T18:42:47;6.40;99.90
78289;DHT22;67539;48.752;12.922;2023-11-19T18:45:20;6.40;99.90
78289;DHT22;67539;48.752;12.922;2023-11-19T18:47:49;6.30;99.90
78289;DHT22;67539;48.752;12.922;2023-11-19T18:50:18;6.30;99.90
78289;DHT22;67539;48.752;12.922;2023-11-19T18:52:47;6.20;99.90
78289;DHT22;67539;48.752;12.922;2023-11-19T18:55:16;6.20;99.90
78289;DHT22;67539;48.752;12.922;2023-11-19T18:57:44;6.20;99.90
78289;DHT22;67539;48.752;12.922;2023-11-19T19:00:14;6.20;99.90
78289;DHT22;67539;48.752;12.922;2023-11-19T19:02:43;6.20;99.90
78289;DHT22;67539;48.752;12.922;2023-11-19T19:05:18;6.20;99.90
78289;DHT22;67539;48.752;12.922;2023-11-19T19:07:46;6.20;99.90
78289;DHT22;67539;48.752;12.922;2023-11-19T19:10:15;6.20;99.90
78289;DHT22;67539;48.752;12.922;2023-11-19T19:12:43;6.20;99.90
78289;DHT22;67539;48.752;12.922;2023-11-19T19:15:11;6.30;99.90
78289;DHT22;67539;48.752;12.922;2023-11-19T19:17:44;6.30;99.90
78289;DHT22;67539;48.752;12.922;2023-11-19T19:20:13;6.30;99.90
78289;DHT22;67539;48.752;12.922;2023-11-19T19:22:41;6.30;99.90
78289;DHT22;67539;48.752;12.922;2023-11-19T19:25:13;6.30;99.90
78289;DHT22;67539;48.752;12.922;2023-11-19T19:27:42;6.30;99.90
78289;DHT22;67539;48.752;12.922;2023-11-19T19:30:12;6.30;99.90
78289;DHT22;67539;48.752;12.922;2023-11-19T19:32:41;6.20;99.90
78289;DHT22;67539;48.752;12.922;2023-11-19T19:35:13;6.20;99.90
78289;DHT22;67539;48.752;12.922;2023-11-19T19:37:41;6.20;99.90
78289;DHT22;67539;48.752;12.922;2023-11-19T19:40:11;6.20;99.90
78289;DHT22;67539;48.752;12.922;2023-11-19T19:42:42;6.30;99.90